createdAt,value
2023-01-29T08:41:59.584Z,29.10
2023-01-29T08:44:35.195Z,25.75
2023-01-29T08:47:11.374Z,33.65
2023-01-29T08:52:29.485Z,27.20
2023-01-29T08:55:05.571Z,30.33
2023-01-29T08:57:41.545Z,29.00
2023-01-29T09:00:23.545Z,32.75
2023-01-29T09:03:20.151Z,28.30
2023-01-29T09:06:05.380Z,31.73
2023-01-29T09:09:16.357Z,33.67
2023-01-29T09:12:20.782Z,32.60
2023-01-29T09:15:32.516Z,30.90
2023-01-29T09:18:08.456Z,29.95
2023-01-29T09:23:32.441Z,32.13
2023-01-29T09:26:10.134Z,32.03
2023-01-29T09:28:46.268Z,30.60
2023-01-29T09:31:20.666Z,33.25
2023-01-29T09:33:55.259Z,33.60
2023-01-29T09:36:29.907Z,33.60
2023-01-29T09:39:00.679Z,32.35
2023-01-29T09:41:35.532Z,30.35
2023-01-29T09:44:16.592Z,32.65
2023-01-29T09:46:54.457Z,30.00
2023-01-29T09:49:29.542Z,35.47
2023-01-29T09:51:59.498Z,32.08
2023-01-29T09:54:30.287Z,33.13
2023-01-29T09:59:51.064Z,33.63
2023-01-29T10:02:24.491Z,32.10
2023-01-29T10:05:25.049Z,32.70
2023-01-29T10:07:59.061Z,29.63
2023-01-29T10:11:02.942Z,31.53
2023-01-29T10:13:55.220Z,35.25
2023-01-29T10:19:35.549Z,30.20
2023-01-29T10:22:13.088Z,32.85
2023-01-29T10:25:19.708Z,30.50
2023-01-29T10:27:57.154Z,30.48
2023-01-29T10:30:29.290Z,33.25
2023-01-29T10:33:06.492Z,32.27
2023-01-29T10:35:36.161Z,31.35
2023-01-29T10:38:41.376Z,31.88
2023-01-29T10:43:47.549Z,33.72
2023-01-29T10:46:47.652Z,29.88
2023-01-29T10:49:38.271Z,28.20
2023-01-29T10:52:12.615Z,29.85
2023-01-29T10:55:04.254Z,29.85
2023-01-29T10:57:40.137Z,28.25
2023-01-29T11:00:22.649Z,30.58
2023-01-29T11:02:57.951Z,27.30
2023-01-29T11:05:37.380Z,30.63
2023-01-29T11:08:15.408Z,27.58
2023-01-29T11:11:01.493Z,29.35
2023-01-29T11:13:37.994Z,29.52
2023-01-29T11:16:11.949Z,28.77
2023-01-29T11:19:13.286Z,31.38
2023-01-29T11:22:05.940Z,28.58
2023-01-29T11:24:43.670Z,29.00
2023-01-29T11:27:29.884Z,27.08
2023-01-29T11:30:05.086Z,29.80
2023-01-29T11:32:39.409Z,26.27
2023-01-29T11:35:16.547Z,28.30
2023-01-29T11:38:08.050Z,27.53
2023-01-29T11:40:43.647Z,30.00
2023-01-29T11:43:29.345Z,28.15
2023-01-29T11:46:05.305Z,28.07
2023-01-29T11:48:59.094Z,30.98
2023-01-29T11:51:37.702Z,29.83
2023-01-29T11:54:17.781Z,26.35
2023-01-29T11:56:45.194Z,32.08
2023-01-29T11:59:26.118Z,28.70
2023-01-29T12:01:53.547Z,28.65
2023-01-29T12:04:31.005Z,28.20
2023-01-29T12:06:59.319Z,32.05
2023-01-29T12:09:28.374Z,31.45
2023-01-29T12:12:18.254Z,29.88
2023-01-29T12:14:57.872Z,28.70
2023-01-29T12:17:34.629Z,27.17
2023-01-29T12:20:09.660Z,32.42
2023-01-29T12:23:00.164Z,28.63
2023-01-29T12:25:35.765Z,27.33
2023-01-29T12:28:26.313Z,27.95
2023-01-29T12:31:09.922Z,28.13
2023-01-29T12:33:45.240Z,26.33
2023-01-29T12:36:37.647Z,32.45
2023-01-29T12:39:12.549Z,26.05
2023-01-29T12:41:58.354Z,28.88
2023-01-29T12:44:42.792Z,28.40
2023-01-29T12:47:22.014Z,26.73
2023-01-29T12:50:06.424Z,31.15
2023-01-29T12:52:45.107Z,28.98
2023-01-29T12:55:20.507Z,30.70
2023-01-29T12:58:09.956Z,26.33
2023-01-29T13:00:45.068Z,25.58
2023-01-29T13:03:49.976Z,25.95
2023-01-29T13:06:24.544Z,27.98
2023-01-29T13:09:02.837Z,26.80
2023-01-29T13:11:36.735Z,24.65
2023-01-29T13:14:49.780Z,26.33
2023-01-29T13:17:24.569Z,25.55
2023-01-29T13:20:36.980Z,22.70
2023-01-29T13:29:56.253Z,27.65
2023-01-29T13:32:33.476Z,25.50
2023-01-29T13:35:16.096Z,23.85
2023-01-29T13:37:58.502Z,25.95
2023-01-29T13:40:44.057Z,24.65
2023-01-29T13:43:29.234Z,24.30
2023-01-29T13:46:13.399Z,23.90
2023-01-29T13:48:55.783Z,26.05
2023-01-29T13:51:48.429Z,24.98
2023-01-29T13:57:13.781Z,22.17
2023-01-29T13:59:51.360Z,23.88
2023-01-29T14:02:28.933Z,25.50
2023-01-29T14:05:03.240Z,24.38
2023-01-29T14:07:49.450Z,24.52
2023-01-29T14:10:23.752Z,23.17
2023-01-29T14:13:05.364Z,26.03
2023-01-29T14:18:22.059Z,24.95
2023-01-29T14:20:56.613Z,25.45
2023-01-29T14:23:42.243Z,24.70
2023-01-29T14:26:17.618Z,23.50
2023-01-29T14:28:57.649Z,23.95
2023-01-29T14:31:37.353Z,22.70
2023-01-29T14:34:30.270Z,25.10
2023-01-29T14:37:07.593Z,25.85
2023-01-29T14:39:53.232Z,25.80
2023-01-29T14:42:30.554Z,24.75
2023-01-29T14:45:11.644Z,26.45
2023-01-29T14:47:48.757Z,26.65
2023-01-29T14:50:29.497Z,26.98
2023-01-29T14:53:07.762Z,28.52
2023-01-29T14:55:51.446Z,30.02
2023-01-29T14:58:30.094Z,25.47
2023-01-29T15:01:15.451Z,28.80
2023-01-29T15:03:50.858Z,26.92
2023-01-29T15:06:24.981Z,25.83
2023-01-29T15:08:58.516Z,25.38
2023-01-29T15:11:37.258Z,24.02
2023-01-29T15:14:16.913Z,21.17
2023-01-29T15:16:47.859Z,24.45
2023-01-29T15:19:28.066Z,27.50
2023-01-29T15:22:36.505Z,23.88
2023-01-29T15:25:15.899Z,25.05
2023-01-29T15:27:44.665Z,25.33
2023-01-29T15:30:33.230Z,24.60
2023-01-29T15:33:10.690Z,23.65
2023-01-29T15:35:48.390Z,25.48
2023-01-29T15:38:28.381Z,23.65
2023-01-29T15:40:56.713Z,23.10
2023-01-29T15:43:28.322Z,24.42
